sensor_id;sensor_type;location;lat;lon;timestamp;P1;durP1;ratioP1;P2;durP2;ratioP2
75087;SDS011;63664;44.868;40.600;2023-03-11T00:00:31;14.82;;;6.28;;
75087;SDS011;63664;44.868;40.600;2023-03-11T00:03:03;9.32;;;5.63;;
75087;SDS011;63664;44.868;40.600;2023-03-11T00:05:36;9.25;;;5.45;;
75087;SDS011;63664;44.868;40.600;2023-03-11T00:08:08;8.10;;;5.80;;
75087;SDS011;63664;44.868;40.600;2023-03-11T00:10:38;9.35;;;5.88;;
75087;SDS011;63664;44.868;40.600;2023-03-11T00:13:09;11.63;;;5.85;;
75087;SDS011;63664;44.868;40.600;2023-03-11T00:15:37;8.95;;;5.53;;
75087;SDS011;63664;44.868;40.600;2023-03-11T00:18:06;10.05;;;6.20;;
75087;SDS011;63664;44.868;40.600;2023-03-11T00:20:35;9.73;;;6.40;;
75087;SDS011;63664;44.868;40.600;2023-03-11T00:23:03;11.20;;;6.40;;
75087;SDS011;63664;44.868;40.600;2023-03-11T00:25:32;10.85;;;6.47;;
75087;SDS011;63664;44.868;40.600;2023-03-11T00:28:00;11.05;;;6.60;;
75087;SDS011;63664;44.868;40.600;2023-03-11T00:30:27;12.65;;;6.50;;
75087;SDS011;63664;44.868;40.600;2023-03-11T00:32:55;8.95;;;6.30;;
75087;SDS011;63664;44.868;40.600;2023-03-11T00:35:23;10.40;;;6.85;;
75087;SDS011;63664;44.868;40.600;2023-03-11T00:37:54;11.43;;;7.25;;
75087;SDS011;63664;44.868;40.600;2023-03-11T00:42:49;15.23;;;7.43;;
75087;SDS011;63664;44.868;40.600;2023-03-11T00:45:18;10.85;;;7.40;;
75087;SDS011;63664;44.868;40.600;2023-03-11T00:47:50;13.57;;;7.38;;
75087;SDS011;63664;44.868;40.600;2023-03-11T00:50:23;14.88;;;6.95;;
75087;SDS011;63664;44.868;40.600;2023-03-11T00:52:52;10.55;;;7.03;;
75087;SDS011;63664;44.868;40.600;2023-03-11T00:55:23;12.20;;;7.50;;
75087;SDS011;63664;44.868;40.600;2023-03-11T01:00:20;12.55;;;7.38;;
75087;SDS011;63664;44.868;40.600;2023-03-11T01:02:51;11.38;;;6.93;;
75087;SDS011;63664;44.868;40.600;2023-03-11T01:05:23;15.05;;;7.32;;
75087;SDS011;63664;44.868;40.600;2023-03-11T01:07:52;13.23;;;7.25;;
75087;SDS011;63664;44.868;40.600;2023-03-11T01:10:19;12.57;;;7.97;;
75087;SDS011;63664;44.868;40.600;2023-03-11T01:12:45;14.05;;;8.27;;
75087;SDS011;63664;44.868;40.600;2023-03-11T01:15:21;14.98;;;8.63;;
75087;SDS011;63664;44.868;40.600;2023-03-11T01:17:53;12.80;;;8.27;;
75087;SDS011;63664;44.868;40.600;2023-03-11T01:20:19;14.15;;;9.20;;
75087;SDS011;63664;44.868;40.600;2023-03-11T01:22:46;14.35;;;9.75;;
75087;SDS011;63664;44.868;40.600;2023-03-11T01:25:13;14.88;;;9.57;;
75087;SDS011;63664;44.868;40.600;2023-03-11T01:27:43;16.33;;;10.18;;
75087;SDS011;63664;44.868;40.600;2023-03-11T01:30:12;16.30;;;9.60;;
75087;SDS011;63664;44.868;40.600;2023-03-11T01:32:44;14.05;;;8.35;;
75087;SDS011;63664;44.868;40.600;2023-03-11T01:35:12;14.55;;;8.60;;
75087;SDS011;63664;44.868;40.600;2023-03-11T01:37:41;10.02;;;7.68;;
75087;SDS011;63664;44.868;40.600;2023-03-11T01:40:11;12.93;;;6.97;;
75087;SDS011;63664;44.868;40.600;2023-03-11T01:42:44;9.93;;;6.85;;
75087;SDS011;63664;44.868;40.600;2023-03-11T01:47:55;13.52;;;6.43;;
75087;SDS011;63664;44.868;40.600;2023-03-11T01:50:22;10.55;;;6.60;;
75087;SDS011;63664;44.868;40.600;2023-03-11T01:52:52;12.55;;;6.45;;
75087;SDS011;63664;44.868;40.600;2023-03-11T01:55:23;9.48;;;6.55;;
75087;SDS011;63664;44.868;40.600;2023-03-11T01:57:52;13.25;;;6.63;;
75087;SDS011;63664;44.868;40.600;2023-03-11T02:00:19;8.77;;;5.97;;
75087;SDS011;63664;44.868;40.600;2023-03-11T02:02:48;9.02;;;5.82;;
75087;SDS011;63664;44.868;40.600;2023-03-11T02:05:19;8.23;;;5.80;;
75087;SDS011;63664;44.868;40.600;2023-03-11T02:07:47;9.50;;;6.18;;
75087;SDS011;63664;44.868;40.600;2023-03-11T02:10:23;10.75;;;6.68;;
75087;SDS011;63664;44.868;40.600;2023-03-11T02:12:49;10.23;;;5.60;;
75087;SDS011;63664;44.868;40.600;2023-03-11T02:15:27;7.03;;;4.88;;
75087;SDS011;63664;44.868;40.600;2023-03-11T02:17:56;9.07;;;5.70;;
75087;SDS011;63664;44.868;40.600;2023-03-11T02:20:41;8.60;;;5.35;;
75087;SDS011;63664;44.868;40.600;2023-03-11T02:23:23;8.77;;;6.03;;
75087;SDS011;63664;44.868;40.600;2023-03-11T02:26:10;9.35;;;5.68;;
75087;SDS011;63664;44.868;40.600;2023-03-11T02:28:59;12.10;;;6.50;;
75087;SDS011;63664;44.868;40.600;2023-03-11T02:31:31;9.90;;;6.13;;
75087;SDS011;63664;44.868;40.600;2023-03-11T02:34:00;10.43;;;5.63;;
75087;SDS011;63664;44.868;40.600;2023-03-11T02:36:31;10.20;;;5.70;;
75087;SDS011;63664;44.868;40.600;2023-03-11T02:39:01;11.73;;;5.60;;
75087;SDS011;63664;44.868;40.600;2023-03-11T02:41:34;9.73;;;5.75;;
75087;SDS011;63664;44.868;40.600;2023-03-11T02:44:09;8.57;;;5.40;;
75087;SDS011;63664;44.868;40.600;2023-03-11T02:46:43;7.32;;;5.63;;
75087;SDS011;63664;44.868;40.600;2023-03-11T02:49:13;12.13;;;6.50;;
75087;SDS011;63664;44.868;40.600;2023-03-11T02:51:43;10.52;;;6.07;;
75087;SDS011;63664;44.868;40.600;2023-03-11T02:54:10;11.10;;;5.97;;
75087;SDS011;63664;44.868;40.600;2023-03-11T02:56:40;7.65;;;5.28;;
75087;SDS011;63664;44.868;40.600;2023-03-11T02:59:07;9.07;;;4.80;;
75087;SDS011;63664;44.868;40.600;2023-03-11T03:01:36;10.13;;;5.50;;
75087;SDS011;63664;44.868;40.600;2023-03-11T03:04:07;7.95;;;5.35;;
75087;SDS011;63664;44.868;40.600;2023-03-11T03:06:33;8.98;;;4.47;;
75087;SDS011;63664;44.868;40.600;2023-03-11T03:08:59;7.22;;;4.75;;
75087;SDS011;63664;44.868;40.600;2023-03-11T03:11:28;11.88;;;5.07;;
75087;SDS011;63664;44.868;40.600;2023-03-11T03:13:57;7.40;;;4.60;;
75087;SDS011;63664;44.868;40.600;2023-03-11T03:16:26;6.43;;;4.47;;
75087;SDS011;63664;44.868;40.600;2023-03-11T03:18:53;7.50;;;5.25;;
75087;SDS011;63664;44.868;40.600;2023-03-11T03:21:22;7.88;;;4.53;;
75087;SDS011;63664;44.868;40.600;2023-03-11T03:23:48;12.02;;;5.50;;
75087;SDS011;63664;44.868;40.600;2023-03-11T03:26:14;7.97;;;4.20;;
75087;SDS011;63664;44.868;40.600;2023-03-11T03:28:47;6.18;;;4.22;;
75087;SDS011;63664;44.868;40.600;2023-03-11T03:31:18;6.45;;;4.40;;
75087;SDS011;63664;44.868;40.600;2023-03-11T03:33:44;6.13;;;4.60;;
75087;SDS011;63664;44.868;40.600;2023-03-11T03:36:12;9.98;;;5.47;;
75087;SDS011;63664;44.868;40.600;2023-03-11T03:38:47;12.35;;;5.50;;
75087;SDS011;63664;44.868;40.600;2023-03-11T03:41:15;7.43;;;4.65;;
75087;SDS011;63664;44.868;40.600;2023-03-11T03:43:43;7.65;;;4.72;;
75087;SDS011;63664;44.868;40.600;2023-03-11T03:46:10;8.35;;;5.63;;
75087;SDS011;63664;44.868;40.600;2023-03-11T03:48:41;10.43;;;5.15;;
75087;SDS011;63664;44.868;40.600;2023-03-11T03:53:43;13.30;;;5.80;;
75087;SDS011;63664;44.868;40.600;2023-03-11T03:56:16;6.93;;;4.75;;
75087;SDS011;63664;44.868;40.600;2023-03-11T03:58:45;9.50;;;5.68;;
75087;SDS011;63664;44.868;40.600;2023-03-11T04:01:12;15.75;;;5.50;;
75087;SDS011;63664;44.868;40.600;2023-03-11T04:03:40;7.70;;;5.53;;
75087;SDS011;63664;44.868;40.600;2023-03-11T04:06:16;10.35;;;5.20;;
75087;SDS011;63664;44.868;40.600;2023-03-11T04:08:52;10.38;;;5.40;;
75087;SDS011;63664;44.868;40.600;2023-03-11T04:11:22;11.20;;;5.57;;
75087;SDS011;63664;44.868;40.600;2023-03-11T04:13:49;9.30;;;5.50;;
75087;SDS011;63664;44.868;40.600;2023-03-11T04:16:20;13.68;;;5.57;;
75087;SDS011;63664;44.868;40.600;2023-03-11T04:18:50;8.35;;;5.57;;
75087;SDS011;63664;44.868;40.600;2023-03-11T04:21:20;9.15;;;6.60;;
75087;SDS011;63664;44.868;40.600;2023-03-11T04:23:47;12.63;;;6.22;;
75087;SDS011;63664;44.868;40.600;2023-03-11T04:26:15;11.35;;;6.70;;
75087;SDS011;63664;44.868;40.600;2023-03-11T04:28:42;9.82;;;5.35;;
75087;SDS011;63664;44.868;40.600;2023-03-11T04:31:13;11.73;;;6.25;;
75087;SDS011;63664;44.868;40.600;2023-03-11T04:33:39;12.82;;;6.90;;
75087;SDS011;63664;44.868;40.600;2023-03-11T04:36:08;15.93;;;8.02;;
75087;SDS011;63664;44.868;40.600;2023-03-11T04:38:37;10.40;;;6.05;;
75087;SDS011;63664;44.868;40.600;2023-03-11T04:41:07;10.50;;;6.40;;
75087;SDS011;63664;44.868;40.600;2023-03-11T04:43:38;11.80;;;5.47;;
75087;SDS011;63664;44.868;40.600;2023-03-11T04:46:09;9.93;;;5.55;;
75087;SDS011;63664;44.868;40.600;2023-03-11T04:48:37;10.07;;;5.63;;
75087;SDS011;63664;44.868;40.600;2023-03-11T04:53:53;10.43;;;6.13;;
75087;SDS011;63664;44.868;40.600;2023-03-11T04:56:23;11.80;;;5.95;;
75087;SDS011;63664;44.868;40.600;2023-03-11T04:58:51;10.60;;;6.38;;
75087;SDS011;63664;44.868;40.600;2023-03-11T05:01:22;9.57;;;5.68;;
75087;SDS011;63664;44.868;40.600;2023-03-11T06:54:38;5.47;;;3.35;;
75087;SDS011;63664;44.868;40.600;2023-03-11T06:57:06;5.13;;;3.25;;
75087;SDS011;63664;44.868;40.600;2023-03-11T06:59:33;4.88;;;3.10;;
75087;SDS011;63664;44.868;40.600;2023-03-11T07:02:04;4.82;;;3.10;;
75087;SDS011;63664;44.868;40.600;2023-03-11T07:04:32;7.75;;;3.38;;
75087;SDS011;63664;44.868;40.600;2023-03-11T07:07:01;5.78;;;3.42;;
75087;SDS011;63664;44.868;40.600;2023-03-11T07:09:34;5.45;;;2.95;;
75087;SDS011;63664;44.868;40.600;2023-03-11T07:12:02;4.82;;;3.20;;
75087;SDS011;63664;44.868;40.600;2023-03-11T07:14:34;7.82;;;3.10;;
75087;SDS011;63664;44.868;40.600;2023-03-11T07:17:00;3.75;;;2.75;;
75087;SDS011;63664;44.868;40.600;2023-03-11T07:19:32;5.05;;;2.88;;
75087;SDS011;63664;44.868;40.600;2023-03-11T07:22:04;4.63;;;2.88;;
75087;SDS011;63664;44.868;40.600;2023-03-11T07:24:33;7.32;;;2.95;;
75087;SDS011;63664;44.868;40.600;2023-03-11T07:26:59;4.60;;;2.80;;
75087;SDS011;63664;44.868;40.600;2023-03-11T07:29:25;4.88;;;2.88;;
75087;SDS011;63664;44.868;40.600;2023-03-11T07:31:54;4.35;;;2.83;;
75087;SDS011;63664;44.868;40.600;2023-03-11T07:34:20;3.97;;;2.80;;
75087;SDS011;63664;44.868;40.600;2023-03-11T07:36:47;3.60;;;2.45;;
75087;SDS011;63664;44.868;40.600;2023-03-11T07:39:15;5.70;;;2.53;;
75087;SDS011;63664;44.868;40.600;2023-03-11T07:41:43;5.93;;;2.90;;
75087;SDS011;63664;44.868;40.600;2023-03-11T07:44:13;4.32;;;1.90;;
75087;SDS011;63664;44.868;40.600;2023-03-11T07:46:43;3.65;;;2.17;;
75087;SDS011;63664;44.868;40.600;2023-03-11T07:49:14;3.83;;;1.98;;
75087;SDS011;63664;44.868;40.600;2023-03-11T07:51:40;2.83;;;2.08;;
75087;SDS011;63664;44.868;40.600;2023-03-11T07:54:08;4.18;;;2.08;;
75087;SDS011;63664;44.868;40.600;2023-03-11T07:56:36;2.63;;;2.15;;
75087;SDS011;63664;44.868;40.600;2023-03-11T07:59:08;4.22;;;2.00;;
75087;SDS011;63664;44.868;40.600;2023-03-11T08:01:34;2.33;;;1.85;;
75087;SDS011;63664;44.868;40.600;2023-03-11T08:04:01;2.10;;;1.48;;
75087;SDS011;63664;44.868;40.600;2023-03-11T08:06:32;2.58;;;1.60;;
75087;SDS011;63664;44.868;40.600;2023-03-11T08:09:04;2.78;;;1.92;;
75087;SDS011;63664;44.868;40.600;2023-03-11T08:11:35;4.95;;;3.22;;
75087;SDS011;63664;44.868;40.600;2023-03-11T08:14:01;2.47;;;1.83;;
75087;SDS011;63664;44.868;40.600;2023-03-11T08:16:28;3.58;;;1.65;;
75087;SDS011;63664;44.868;40.600;2023-03-11T08:18:56;2.45;;;1.73;;
75087;SDS011;63664;44.868;40.600;2023-03-11T08:21:27;3.55;;;1.80;;
75087;SDS011;63664;44.868;40.600;2023-03-11T08:23:59;5.72;;;2.13;;
75087;SDS011;63664;44.868;40.600;2023-03-11T08:26:29;3.85;;;2.35;;
75087;SDS011;63664;44.868;40.600;2023-03-11T08:28:56;2.90;;;1.50;;
75087;SDS011;63664;44.868;40.600;2023-03-11T08:31:27;1.83;;;1.50;;
75087;SDS011;63664;44.868;40.600;2023-03-11T08:33:56;3.47;;;1.73;;
75087;SDS011;63664;44.868;40.600;2023-03-11T08:36:28;2.13;;;1.58;;
75087;SDS011;63664;44.868;40.600;2023-03-11T08:38:54;2.85;;;1.85;;
75087;SDS011;63664;44.868;40.600;2023-03-11T08:41:21;2.97;;;1.52;;
75087;SDS011;63664;44.868;40.600;2023-03-11T08:43:47;2.92;;;1.92;;
75087;SDS011;63664;44.868;40.600;2023-03-11T08:46:27;3.53;;;2.45;;
75087;SDS011;63664;44.868;40.600;2023-03-11T08:48:58;4.03;;;1.73;;
75087;SDS011;63664;44.868;40.600;2023-03-11T08:51:31;2.65;;;1.60;;
75087;SDS011;63664;44.868;40.600;2023-03-11T08:53:58;6.82;;;2.40;;
75087;SDS011;63664;44.868;40.600;2023-03-11T08:56:26;2.22;;;1.70;;
75087;SDS011;63664;44.868;40.600;2023-03-11T08:58:53;2.90;;;1.60;;
75087;SDS011;63664;44.868;40.600;2023-03-11T09:01:19;3.38;;;1.88;;
75087;SDS011;63664;44.868;40.600;2023-03-11T09:03:47;6.13;;;2.20;;
75087;SDS011;63664;44.868;40.600;2023-03-11T09:06:14;3.15;;;2.25;;
75087;SDS011;63664;44.868;40.600;2023-03-11T09:08:45;3.22;;;1.90;;
75087;SDS011;63664;44.868;40.600;2023-03-11T09:11:11;1.77;;;1.48;;
75087;SDS011;63664;44.868;40.600;2023-03-11T09:13:41;2.55;;;2.00;;
75087;SDS011;63664;44.868;40.600;2023-03-11T09:16:10;3.17;;;1.67;;
75087;SDS011;63664;44.868;40.600;2023-03-11T09:18:39;4.10;;;2.35;;
75087;SDS011;63664;44.868;40.600;2023-03-11T09:21:05;5.93;;;2.90;;
75087;SDS011;63664;44.868;40.600;2023-03-11T09:23:31;3.65;;;2.17;;
75087;SDS011;63664;44.868;40.600;2023-03-11T09:25:57;3.55;;;2.30;;
75087;SDS011;63664;44.868;40.600;2023-03-11T09:28:24;4.07;;;2.40;;
75087;SDS011;63664;44.868;40.600;2023-03-11T09:30:53;5.05;;;1.85;;
75087;SDS011;63664;44.868;40.600;2023-03-11T09:33:19;2.10;;;1.63;;
75087;SDS011;63664;44.868;40.600;2023-03-11T09:35:45;2.30;;;1.75;;
75087;SDS011;63664;44.868;40.600;2023-03-11T09:38:12;5.70;;;1.83;;
75087;SDS011;63664;44.868;40.600;2023-03-11T09:40:53;2.03;;;1.73;;
75087;SDS011;63664;44.868;40.600;2023-03-11T09:52:11;3.38;;;1.48;;
75087;SDS011;63664;44.868;40.600;2023-03-11T09:54:45;4.88;;;1.50;;
75087;SDS011;63664;44.868;40.600;2023-03-11T09:57:17;2.10;;;1.52;;
75087;SDS011;63664;44.868;40.600;2023-03-11T09:59:47;3.40;;;1.58;;
75087;SDS011;63664;44.868;40.600;2023-03-11T10:02:15;1.80;;;1.27;;
75087;SDS011;63664;44.868;40.600;2023-03-11T10:04:48;1.80;;;1.55;;
75087;SDS011;63664;44.868;40.600;2023-03-11T10:07:19;4.10;;;2.17;;
75087;SDS011;63664;44.868;40.600;2023-03-11T10:09:52;1.90;;;1.70;;
75087;SDS011;63664;44.868;40.600;2023-03-11T10:12:40;2.08;;;1.48;;
75087;SDS011;63664;44.868;40.600;2023-03-11T10:24:09;2.80;;;1.70;;
75087;SDS011;63664;44.868;40.600;2023-03-11T10:26:45;2.00;;;1.25;;
75087;SDS011;63664;44.868;40.600;2023-03-11T10:29:28;4.50;;;1.42;;
75087;SDS011;63664;44.868;40.600;2023-03-11T10:34:52;2.75;;;1.10;;
75087;SDS011;63664;44.868;40.600;2023-03-11T10:37:30;2.50;;;1.50;;
75087;SDS011;63664;44.868;40.600;2023-03-11T10:40:03;6.30;;;2.15;;
75087;SDS011;63664;44.868;40.600;2023-03-11T10:42:48;2.88;;;1.65;;
75087;SDS011;63664;44.868;40.600;2023-03-11T10:45:18;2.42;;;1.52;;
75087;SDS011;63664;44.868;40.600;2023-03-11T10:47:48;2.75;;;1.35;;
75087;SDS011;63664;44.868;40.600;2023-03-11T10:50:14;4.63;;;1.48;;
75087;SDS011;63664;44.868;40.600;2023-03-11T10:58:16;2.25;;;1.60;;
75087;SDS011;63664;44.868;40.600;2023-03-11T11:03:46;2.60;;;1.45;;
75087;SDS011;63664;44.868;40.600;2023-03-11T11:09:18;3.40;;;1.65;;
75087;SDS011;63664;44.868;40.600;2023-03-11T11:12:11;3.45;;;2.50;;
75087;SDS011;63664;44.868;40.600;2023-03-11T11:14:44;2.60;;;1.77;;
75087;SDS011;63664;44.868;40.600;2023-03-11T11:17:32;2.92;;;1.70;;
75087;SDS011;63664;44.868;40.600;2023-03-11T11:20:01;5.15;;;1.85;;
75087;SDS011;63664;44.868;40.600;2023-03-11T11:22:38;2.53;;;1.77;;
75087;SDS011;63664;44.868;40.600;2023-03-11T11:25:29;5.25;;;2.80;;
75087;SDS011;63664;44.868;40.600;2023-03-11T11:27:59;7.10;;;3.90;;
75087;SDS011;63664;44.868;40.600;2023-03-11T11:30:30;6.85;;;3.17;;
75087;SDS011;63664;44.868;40.600;2023-03-11T11:33:23;5.80;;;2.55;;
75087;SDS011;63664;44.868;40.600;2023-03-11T11:35:53;5.65;;;2.30;;
75087;SDS011;63664;44.868;40.600;2023-03-11T11:38:32;7.00;;;2.40;;
75087;SDS011;63664;44.868;40.600;2023-03-11T11:41:01;11.68;;;3.50;;
75087;SDS011;63664;44.868;40.600;2023-03-11T11:43:51;5.47;;;3.08;;
75087;SDS011;63664;44.868;40.600;2023-03-11T11:47:01;5.55;;;2.40;;
75087;SDS011;63664;44.868;40.600;2023-03-11T11:54:42;6.80;;;3.40;;
75087;SDS011;63664;44.868;40.600;2023-03-11T11:57:11;10.50;;;3.42;;
75087;SDS011;63664;44.868;40.600;2023-03-11T11:59:42;16.67;;;2.53;;
75087;SDS011;63664;44.868;40.600;2023-03-11T12:02:20;4.28;;;2.50;;
75087;SDS011;63664;44.868;40.600;2023-03-11T12:05:28;4.53;;;2.60;;
75087;SDS011;63664;44.868;40.600;2023-03-11T12:08:05;10.80;;;2.90;;
75087;SDS011;63664;44.868;40.600;2023-03-11T12:10:45;5.63;;;2.83;;
75087;SDS011;63664;44.868;40.600;2023-03-11T12:15:53;17.58;;;7.53;;
75087;SDS011;63664;44.868;40.600;2023-03-11T12:18:29;14.82;;;6.40;;
75087;SDS011;63664;44.868;40.600;2023-03-11T12:27:04;11.90;;;6.30;;
75087;SDS011;63664;44.868;40.600;2023-03-11T12:29:56;13.70;;;7.13;;
75087;SDS011;63664;44.868;40.600;2023-03-11T12:32:35;18.13;;;7.68;;
75087;SDS011;63664;44.868;40.600;2023-03-11T12:35:18;18.35;;;8.30;;
75087;SDS011;63664;44.868;40.600;2023-03-11T12:40:56;18.40;;;7.75;;
75087;SDS011;63664;44.868;40.600;2023-03-11T12:46:05;15.98;;;7.32;;
75087;SDS011;63664;44.868;40.600;2023-03-11T13:11:47;23.65;;;12.68;;
75087;SDS011;63664;44.868;40.600;2023-03-11T13:16:45;16.52;;;9.13;;
75087;SDS011;63664;44.868;40.600;2023-03-11T13:30:50;18.25;;;8.75;;
75087;SDS011;63664;44.868;40.600;2023-03-11T13:33:53;20.20;;;10.90;;
75087;SDS011;63664;44.868;40.600;2023-03-11T13:41:56;9.15;;;4.70;;
75087;SDS011;63664;44.868;40.600;2023-03-11T13:44:27;7.60;;;4.25;;
75087;SDS011;63664;44.868;40.600;2023-03-11T13:47:01;8.38;;;3.63;;
75087;SDS011;63664;44.868;40.600;2023-03-11T13:50:21;6.75;;;3.15;;
75087;SDS011;63664;44.868;40.600;2023-03-11T13:55:05;6.72;;;3.88;;
75087;SDS011;63664;44.868;40.600;2023-03-11T13:57:47;11.88;;;5.30;;
75087;SDS011;63664;44.868;40.600;2023-03-11T14:00:19;9.40;;;3.92;;
75087;SDS011;63664;44.868;40.600;2023-03-11T14:56:14;18.55;;;8.48;;
75087;SDS011;63664;44.868;40.600;2023-03-11T15:01:25;20.30;;;9.88;;
75087;SDS011;63664;44.868;40.600;2023-03-11T15:06:27;18.45;;;8.52;;
75087;SDS011;63664;44.868;40.600;2023-03-11T15:08:56;42.15;;;19.55;;
75087;SDS011;63664;44.868;40.600;2023-03-11T15:11:24;37.03;;;17.58;;
75087;SDS011;63664;44.868;40.600;2023-03-11T15:13:54;23.50;;;11.98;;
75087;SDS011;63664;44.868;40.600;2023-03-11T15:16:47;16.92;;;9.25;;
75087;SDS011;63664;44.868;40.600;2023-03-11T15:21:55;21.35;;;10.50;;
75087;SDS011;63664;44.868;40.600;2023-03-11T15:24:27;30.92;;;12.70;;
75087;SDS011;63664;44.868;40.600;2023-03-11T15:26:56;27.42;;;11.90;;
75087;SDS011;63664;44.868;40.600;2023-03-11T15:29:28;20.42;;;9.70;;
75087;SDS011;63664;44.868;40.600;2023-03-11T15:31:59;24.55;;;11.07;;
75087;SDS011;63664;44.868;40.600;2023-03-11T15:34:58;19.58;;;8.65;;
75087;SDS011;63664;44.868;40.600;2023-03-11T15:37:41;49.75;;;13.63;;
75087;SDS011;63664;44.868;40.600;2023-03-11T15:40:11;25.52;;;11.40;;
75087;SDS011;63664;44.868;40.600;2023-03-11T15:42:45;29.55;;;10.00;;
75087;SDS011;63664;44.868;40.600;2023-03-11T15:45:14;24.85;;;9.38;;
75087;SDS011;63664;44.868;40.600;2023-03-11T15:55:44;27.70;;;10.10;;
75087;SDS011;63664;44.868;40.600;2023-03-11T15:58:13;24.77;;;10.15;;
75087;SDS011;63664;44.868;40.600;2023-03-11T16:00:45;21.10;;;9.68;;
75087;SDS011;63664;44.868;40.600;2023-03-11T16:03:14;21.20;;;9.75;;
75087;SDS011;63664;44.868;40.600;2023-03-11T16:05:43;23.02;;;10.80;;
75087;SDS011;63664;44.868;40.600;2023-03-11T16:08:10;19.75;;;10.15;;
75087;SDS011;63664;44.868;40.600;2023-03-11T16:10:36;26.98;;;11.50;;
75087;SDS011;63664;44.868;40.600;2023-03-11T16:13:03;25.83;;;10.38;;
75087;SDS011;63664;44.868;40.600;2023-03-11T16:15:34;23.65;;;10.48;;
75087;SDS011;63664;44.868;40.600;2023-03-11T16:18:03;24.27;;;10.90;;
75087;SDS011;63664;44.868;40.600;2023-03-11T16:23:33;22.20;;;9.68;;
75087;SDS011;63664;44.868;40.600;2023-03-11T16:26:03;19.80;;;10.80;;
75087;SDS011;63664;44.868;40.600;2023-03-11T16:28:33;19.73;;;9.63;;
75087;SDS011;63664;44.868;40.600;2023-03-11T16:31:02;19.17;;;9.25;;
75087;SDS011;63664;44.868;40.600;2023-03-11T16:33:35;18.85;;;9.93;;
75087;SDS011;63664;44.868;40.600;2023-03-11T16:36:02;16.73;;;9.52;;
75087;SDS011;63664;44.868;40.600;2023-03-11T16:38:29;18.90;;;9.73;;
75087;SDS011;63664;44.868;40.600;2023-03-11T16:41:04;20.83;;;10.15;;
75087;SDS011;63664;44.868;40.600;2023-03-11T16:43:33;16.77;;;8.38;;
75087;SDS011;63664;44.868;40.600;2023-03-11T16:46:02;17.23;;;8.85;;
75087;SDS011;63664;44.868;40.600;2023-03-11T16:48:28;20.23;;;9.80;;
75087;SDS011;63664;44.868;40.600;2023-03-11T16:50:57;18.90;;;8.88;;
75087;SDS011;63664;44.868;40.600;2023-03-11T16:53:23;17.38;;;8.77;;
75087;SDS011;63664;44.868;40.600;2023-03-11T16:55:56;19.13;;;9.25;;
75087;SDS011;63664;44.868;40.600;2023-03-11T16:58:22;13.75;;;7.93;;
75087;SDS011;63664;44.868;40.600;2023-03-11T17:00:48;15.05;;;8.27;;
75087;SDS011;63664;44.868;40.600;2023-03-11T17:03:17;17.60;;;9.60;;
75087;SDS011;63664;44.868;40.600;2023-03-11T17:05:44;16.77;;;10.25;;
75087;SDS011;63664;44.868;40.600;2023-03-11T17:08:13;16.67;;;8.70;;
75087;SDS011;63664;44.868;40.600;2023-03-11T17:10:42;18.40;;;8.95;;
75087;SDS011;63664;44.868;40.600;2023-03-11T17:13:10;15.68;;;8.63;;
75087;SDS011;63664;44.868;40.600;2023-03-11T17:15:39;17.60;;;9.10;;
75087;SDS011;63664;44.868;40.600;2023-03-11T17:20:38;17.50;;;9.13;;
75087;SDS011;63664;44.868;40.600;2023-03-11T17:23:08;15.75;;;8.93;;
75087;SDS011;63664;44.868;40.600;2023-03-11T17:25:39;16.58;;;9.05;;
75087;SDS011;63664;44.868;40.600;2023-03-11T17:28:06;16.70;;;9.35;;
75087;SDS011;63664;44.868;40.600;2023-03-11T17:30:33;19.15;;;9.23;;
75087;SDS011;63664;44.868;40.600;2023-03-11T17:33:00;18.08;;;9.57;;
75087;SDS011;63664;44.868;40.600;2023-03-11T17:35:26;20.52;;;10.27;;
75087;SDS011;63664;44.868;40.600;2023-03-11T17:37:53;16.15;;;8.93;;
75087;SDS011;63664;44.868;40.600;2023-03-11T17:40:19;19.45;;;11.07;;
75087;SDS011;63664;44.868;40.600;2023-03-11T17:42:46;19.63;;;11.10;;
75087;SDS011;63664;44.868;40.600;2023-03-11T17:45:17;24.25;;;10.90;;
75087;SDS011;63664;44.868;40.600;2023-03-11T17:47:49;20.55;;;11.43;;
75087;SDS011;63664;44.868;40.600;2023-03-11T17:50:15;20.70;;;10.75;;
75087;SDS011;63664;44.868;40.600;2023-03-11T17:52:45;22.65;;;10.60;;
75087;SDS011;63664;44.868;40.600;2023-03-11T17:55:11;17.48;;;9.85;;
75087;SDS011;63664;44.868;40.600;2023-03-11T17:57:38;18.25;;;9.70;;
75087;SDS011;63664;44.868;40.600;2023-03-11T18:00:04;21.30;;;10.38;;
75087;SDS011;63664;44.868;40.600;2023-03-11T18:02:34;17.23;;;9.98;;
75087;SDS011;63664;44.868;40.600;2023-03-11T18:05:03;16.50;;;8.68;;
75087;SDS011;63664;44.868;40.600;2023-03-11T18:07:34;15.48;;;9.10;;
75087;SDS011;63664;44.868;40.600;2023-03-11T18:10:04;17.20;;;9.55;;
75087;SDS011;63664;44.868;40.600;2023-03-11T18:12:31;19.65;;;9.27;;
75087;SDS011;63664;44.868;40.600;2023-03-11T18:14:58;19.67;;;10.35;;
75087;SDS011;63664;44.868;40.600;2023-03-11T18:17:25;26.52;;;9.85;;
75087;SDS011;63664;44.868;40.600;2023-03-11T18:19:53;19.85;;;9.88;;
75087;SDS011;63664;44.868;40.600;2023-03-11T18:22:25;17.80;;;9.43;;
75087;SDS011;63664;44.868;40.600;2023-03-11T18:24:52;17.58;;;9.70;;
75087;SDS011;63664;44.868;40.600;2023-03-11T18:27:18;17.50;;;9.75;;
75087;SDS011;63664;44.868;40.600;2023-03-11T18:29:45;21.05;;;10.35;;
75087;SDS011;63664;44.868;40.600;2023-03-11T18:32:11;15.75;;;8.85;;
75087;SDS011;63664;44.868;40.600;2023-03-11T18:34:37;16.33;;;9.45;;
75087;SDS011;63664;44.868;40.600;2023-03-11T18:37:05;17.60;;;10.07;;
75087;SDS011;63664;44.868;40.600;2023-03-11T18:39:31;18.25;;;9.85;;
75087;SDS011;63664;44.868;40.600;2023-03-11T18:41:57;18.02;;;9.63;;
75087;SDS011;63664;44.868;40.600;2023-03-11T18:44:23;20.02;;;10.20;;
75087;SDS011;63664;44.868;40.600;2023-03-11T18:46:50;17.42;;;8.90;;
75087;SDS011;63664;44.868;40.600;2023-03-11T18:49:21;17.50;;;9.18;;
75087;SDS011;63664;44.868;40.600;2023-03-11T18:51:50;22.73;;;9.07;;
75087;SDS011;63664;44.868;40.600;2023-03-11T18:54:17;17.60;;;9.68;;
75087;SDS011;63664;44.868;40.600;2023-03-11T18:56:43;16.02;;;9.65;;
75087;SDS011;63664;44.868;40.600;2023-03-11T18:59:09;17.40;;;10.43;;
75087;SDS011;63664;44.868;40.600;2023-03-11T19:01:36;23.45;;;9.45;;
75087;SDS011;63664;44.868;40.600;2023-03-11T19:04:05;21.23;;;11.30;;
75087;SDS011;63664;44.868;40.600;2023-03-11T19:06:32;18.38;;;10.27;;
75087;SDS011;63664;44.868;40.600;2023-03-11T19:09:00;20.23;;;10.32;;
75087;SDS011;63664;44.868;40.600;2023-03-11T19:11:31;18.42;;;10.10;;
75087;SDS011;63664;44.868;40.600;2023-03-11T19:14:00;25.25;;;11.02;;
75087;SDS011;63664;44.868;40.600;2023-03-11T19:16:27;18.42;;;10.70;;
75087;SDS011;63664;44.868;40.600;2023-03-11T19:18:54;22.38;;;10.95;;
75087;SDS011;63664;44.868;40.600;2023-03-11T19:21:21;20.98;;;10.40;;
75087;SDS011;63664;44.868;40.600;2023-03-11T19:23:47;17.15;;;9.93;;
75087;SDS011;63664;44.868;40.600;2023-03-11T19:26:16;16.77;;;9.77;;
75087;SDS011;63664;44.868;40.600;2023-03-11T19:28:43;19.33;;;10.40;;
75087;SDS011;63664;44.868;40.600;2023-03-11T19:31:09;16.80;;;9.93;;
75087;SDS011;63664;44.868;40.600;2023-03-11T19:33:36;19.25;;;10.85;;
75087;SDS011;63664;44.868;40.600;2023-03-11T19:36:03;22.60;;;10.38;;
75087;SDS011;63664;44.868;40.600;2023-03-11T19:38:31;21.75;;;11.25;;
75087;SDS011;63664;44.868;40.600;2023-03-11T19:41:02;18.75;;;10.20;;